createdAt,value
2023-02-06T00:01:59.220Z,10.52
2023-02-06T00:05:00.796Z,10.37
2023-02-06T00:08:02.691Z,10.63
2023-02-06T00:11:07.387Z,10.98
2023-02-06T00:14:09.056Z,11.05
2023-02-06T00:17:10.596Z,10.88
2023-02-06T00:20:13.202Z,11.32
2023-02-06T00:23:14.956Z,11.70
2023-02-06T00:26:16.732Z,10.13
2023-02-06T00:29:18.871Z,11.07
2023-02-06T00:32:21.596Z,11.73
2023-02-06T00:35:23.186Z,10.97
2023-02-06T00:38:24.773Z,12.23
2023-02-06T00:41:26.321Z,11.95
2023-02-06T00:44:28.947Z,11.82
2023-02-06T00:47:30.512Z,10.23
2023-02-06T00:50:32.070Z,8.95
2023-02-06T00:53:33.822Z,10.38
2023-02-06T00:56:35.609Z,9.13
2023-02-06T00:59:37.144Z,10.02
2023-02-06T01:02:38.758Z,9.32
2023-02-06T01:05:40.352Z,9.57
2023-02-06T01:08:41.962Z,9.85
2023-02-06T01:11:43.547Z,9.05
2023-02-06T01:14:45.162Z,9.77
2023-02-06T01:17:46.638Z,9.40
2023-02-06T01:20:48.209Z,9.32
2023-02-06T01:23:51.352Z,9.65
2023-02-06T01:26:52.935Z,9.23
2023-02-06T01:29:54.608Z,9.68
2023-02-06T01:32:56.213Z,9.43
2023-02-06T01:35:57.790Z,9.50
2023-02-06T01:38:59.364Z,9.35
2023-02-06T01:42:00.966Z,8.35
2023-02-06T01:45:25.080Z,8.68
2023-02-06T01:48:51.639Z,8.35
2023-02-06T01:52:06.506Z,8.65
2023-02-06T01:55:08.288Z,8.60
2023-02-06T01:58:11.956Z,8.67
2023-02-06T02:01:13.608Z,8.52
2023-02-06T02:04:19.092Z,9.00
2023-02-06T02:07:27.230Z,8.43
2023-02-06T02:10:30.747Z,8.32
2023-02-06T02:13:34.307Z,8.30
2023-02-06T02:17:14.766Z,8.23
2023-02-06T02:20:28.522Z,8.73
2023-02-06T02:23:37.723Z,8.13
2023-02-06T02:27:14.668Z,8.93
2023-02-06T02:30:53.828Z,7.43
2023-02-06T02:34:08.088Z,7.95
2023-02-06T02:37:28.696Z,8.00
2023-02-06T02:40:39.465Z,8.07
2023-02-06T02:43:58.089Z,8.10
2023-02-06T02:47:03.690Z,7.90
2023-02-06T02:50:06.082Z,8.45
2023-02-06T02:53:08.356Z,8.50
2023-02-06T02:56:30.243Z,9.07
2023-02-06T02:59:36.663Z,8.48
2023-02-06T03:02:40.896Z,7.40
2023-02-06T03:06:10.180Z,9.23
2023-02-06T03:09:15.746Z,8.80
2023-02-06T03:12:43.473Z,8.60
2023-02-06T03:15:54.805Z,8.85
2023-02-06T03:19:37.650Z,8.65
2023-02-06T03:22:41.988Z,8.45
2023-02-06T03:25:47.587Z,7.90
2023-02-06T03:28:52.753Z,7.93
2023-02-06T03:32:01.789Z,7.88
2023-02-06T03:35:10.397Z,8.63
2023-02-06T03:38:12.772Z,8.15
2023-02-06T03:41:16.336Z,8.05
2023-02-06T03:44:24.700Z,8.10
2023-02-06T03:47:27.649Z,7.97
2023-02-06T03:50:31.605Z,8.63
2023-02-06T03:53:36.499Z,8.38
2023-02-06T03:56:58.325Z,8.25
2023-02-06T03:59:59.920Z,8.10
2023-02-06T04:03:02.362Z,8.85
2023-02-06T04:06:04.064Z,8.67
2023-02-06T04:09:05.704Z,8.05
2023-02-06T04:12:08.263Z,8.35
2023-02-06T04:15:10.743Z,8.23
2023-02-06T04:18:12.293Z,8.00
2023-02-06T04:21:13.906Z,7.93
2023-02-06T04:24:15.468Z,8.18
2023-02-06T04:27:17.100Z,8.23
2023-02-06T04:30:19.190Z,7.95
2023-02-06T04:33:21.026Z,8.18
2023-02-06T04:36:22.596Z,8.30
2023-02-06T04:39:24.586Z,8.48
2023-02-06T04:42:26.207Z,8.07
2023-02-06T04:45:27.915Z,7.80
2023-02-06T04:48:29.508Z,8.55
2023-02-06T04:51:31.064Z,8.18
2023-02-06T04:54:32.851Z,8.55
2023-02-06T04:57:34.513Z,8.68
2023-02-06T05:00:37.975Z,8.52
2023-02-06T05:03:40.291Z,7.82
2023-02-06T05:06:41.857Z,7.57
2023-02-06T05:09:43.403Z,8.50
2023-02-06T05:12:47.028Z,8.43
2023-02-06T05:15:48.857Z,8.73
2023-02-06T05:18:55.598Z,9.30
2023-02-06T05:21:57.152Z,8.55
2023-02-06T05:24:58.726Z,9.15
2023-02-06T05:28:00.328Z,8.55
2023-02-06T05:31:02.961Z,8.60
2023-02-06T05:34:04.588Z,9.45
2023-02-06T05:37:06.149Z,7.97
2023-02-06T05:40:09.027Z,8.65
2023-02-06T05:43:10.802Z,9.15
2023-02-06T05:46:13.119Z,9.03
2023-02-06T05:49:15.244Z,9.35
2023-02-06T05:52:16.938Z,10.07
2023-02-06T05:55:18.665Z,8.98
2023-02-06T05:58:21.135Z,9.50
2023-02-06T06:01:22.735Z,8.85
2023-02-06T06:04:24.948Z,9.38
2023-02-06T06:07:26.549Z,9.03
2023-02-06T06:10:28.341Z,8.55
2023-02-06T06:13:30.408Z,8.15
2023-02-06T06:16:32.504Z,9.23
2023-02-06T06:19:34.104Z,8.55
2023-02-06T06:22:35.644Z,9.25
2023-02-06T06:25:37.595Z,9.18
2023-02-06T06:28:39.401Z,9.30
2023-02-06T06:31:41.111Z,9.65
2023-02-06T06:34:42.922Z,8.77
2023-02-06T06:37:44.799Z,9.50
2023-02-06T06:40:46.360Z,9.50
2023-02-06T06:43:49.553Z,9.15
2023-02-06T06:46:52.519Z,9.60
2023-02-06T06:49:54.175Z,8.95
2023-02-06T06:52:55.773Z,9.07
2023-02-06T06:56:04.003Z,9.18
2023-02-06T06:59:05.718Z,9.43
2023-02-06T07:02:07.642Z,8.85
2023-02-06T07:05:09.293Z,9.32
2023-02-06T07:08:10.858Z,9.33
2023-02-06T07:11:18.516Z,9.50
2023-02-06T07:14:20.353Z,8.43
2023-02-06T07:17:21.913Z,9.13
2023-02-06T07:20:23.723Z,8.95
2023-02-06T07:23:25.580Z,9.45
2023-02-06T07:26:27.181Z,9.55
2023-02-06T07:29:28.813Z,9.35
2023-02-06T07:32:30.393Z,8.93
2023-02-06T07:35:32.110Z,9.07
2023-02-06T07:38:33.619Z,9.67
2023-02-06T07:41:35.226Z,8.90
2023-02-06T07:44:36.792Z,8.80
2023-02-06T07:47:38.428Z,8.73
2023-02-06T07:50:40.096Z,9.23
2023-02-06T07:53:41.631Z,9.10
2023-02-06T07:56:43.779Z,8.50
2023-02-06T07:59:45.368Z,9.18
2023-02-06T08:02:46.945Z,8.15
2023-02-06T08:05:48.563Z,8.30
2023-02-06T08:08:50.710Z,8.00
2023-02-06T08:11:52.298Z,8.98
2023-02-06T08:14:53.883Z,9.05
2023-02-06T08:17:55.547Z,8.40
2023-02-06T08:21:04.312Z,8.38
2023-02-06T08:24:06.528Z,7.80
2023-02-06T08:27:08.126Z,7.97
2023-02-06T08:30:10.348Z,8.60
2023-02-06T08:33:11.857Z,8.30
2023-02-06T08:36:14.415Z,8.60
2023-02-06T08:39:17.380Z,8.63
2023-02-06T08:42:18.968Z,7.78
2023-02-06T08:45:20.642Z,8.48
2023-02-06T08:48:22.273Z,8.43
2023-02-06T08:51:27.731Z,8.73
2023-02-06T08:54:29.346Z,7.72
2023-02-06T08:57:30.846Z,8.60
2023-02-06T09:00:32.430Z,8.32
2023-02-06T09:03:34.623Z,8.15
2023-02-06T09:06:38.783Z,8.75
2023-02-06T09:09:40.436Z,8.23
2023-02-06T09:12:42.012Z,8.43
2023-02-06T09:15:51.344Z,8.27
2023-02-06T09:18:54.358Z,7.43
2023-02-06T09:21:56.228Z,7.95
2023-02-06T09:24:57.864Z,7.95
2023-02-06T09:27:59.382Z,8.07
2023-02-06T09:31:01.220Z,7.88
2023-02-06T09:34:04.209Z,7.80
2023-02-06T09:37:06.296Z,7.88
2023-02-06T09:40:11.632Z,7.77
2023-02-06T09:43:14.004Z,7.18
2023-02-06T09:46:21.273Z,6.85
2023-02-06T09:49:35.908Z,7.30
2023-02-06T09:52:51.568Z,6.45
2023-02-06T09:56:12.660Z,6.40
2023-02-06T09:59:26.136Z,5.97
2023-02-06T10:02:44.508Z,6.07
2023-02-06T10:06:03.224Z,5.78
2023-02-06T10:09:10.959Z,6.07
2023-02-06T10:12:17.980Z,6.23
2023-02-06T10:15:45.403Z,6.32
2023-02-06T10:18:54.288Z,5.60
2023-02-06T10:22:05.620Z,5.47
2023-02-06T10:25:21.087Z,5.18
2023-02-06T10:28:29.438Z,6.00
2023-02-06T10:31:45.541Z,6.25
2023-02-06T10:35:26.338Z,6.00
2023-02-06T10:38:30.900Z,6.90
2023-02-06T10:41:51.641Z,6.78
2023-02-06T10:45:13.207Z,6.57
2023-02-06T10:48:31.574Z,6.82
2023-02-06T10:51:42.597Z,6.78
2023-02-06T10:54:51.616Z,7.33
2023-02-06T10:58:04.653Z,7.43
2023-02-06T11:01:24.766Z,7.43
2023-02-06T11:04:35.824Z,7.30
2023-02-06T11:07:47.140Z,6.85
2023-02-06T11:10:49.908Z,7.50
2023-02-06T11:13:56.968Z,6.93
2023-02-06T11:17:00.185Z,6.57
2023-02-06T11:20:37.355Z,6.30
2023-02-06T11:23:40.486Z,6.72
2023-02-06T11:26:46.787Z,6.37
2023-02-06T11:29:52.052Z,5.85
2023-02-06T11:33:29.376Z,5.88
2023-02-06T11:36:34.704Z,5.35
2023-02-06T11:39:38.840Z,5.03
2023-02-06T11:42:40.398Z,4.97
2023-02-06T11:45:42.556Z,4.85
2023-02-06T11:48:46.867Z,4.70
2023-02-06T11:51:53.953Z,4.35
2023-02-06T11:55:01.642Z,4.55
2023-02-06T11:58:21.419Z,4.90
2023-02-06T12:01:23.452Z,4.80
2023-02-06T12:04:35.541Z,4.47
2023-02-06T12:07:42.558Z,4.20
2023-02-06T12:10:58.088Z,4.88
2023-02-06T12:14:05.632Z,4.63
2023-02-06T12:17:36.155Z,4.38
2023-02-06T12:20:48.204Z,4.40
2023-02-06T12:23:58.105Z,4.00
2023-02-06T12:27:05.691Z,4.40
2023-02-06T12:30:26.684Z,4.80
2023-02-06T12:33:36.105Z,5.15
2023-02-06T12:36:53.169Z,5.25
2023-02-06T12:39:54.749Z,5.50
2023-02-06T12:43:01.568Z,5.10
2023-02-06T12:46:16.420Z,5.10
2023-02-06T12:49:29.287Z,4.50
2023-02-06T12:52:31.192Z,4.60
2023-02-06T12:56:05.687Z,5.32
2023-02-06T12:59:10.072Z,4.65
2023-02-06T13:02:50.776Z,4.90
2023-02-06T13:06:01.691Z,4.68
2023-02-06T13:09:06.732Z,5.03
2023-02-06T13:12:16.238Z,4.75
2023-02-06T13:15:24.903Z,4.45
2023-02-06T13:18:41.827Z,4.47
2023-02-06T13:21:52.185Z,5.07
2023-02-06T13:24:57.460Z,4.67
2023-02-06T13:28:22.627Z,5.20
2023-02-06T13:31:27.450Z,4.65
2023-02-06T13:34:29.240Z,5.40
2023-02-06T13:37:41.264Z,5.05
2023-02-06T13:40:43.274Z,4.82
2023-02-06T13:44:05.194Z,5.68
2023-02-06T13:47:16.644Z,5.13
2023-02-06T13:50:33.267Z,4.45
2023-02-06T13:53:56.637Z,3.38
2023-02-06T13:57:39.419Z,3.33
2023-02-06T14:00:46.672Z,5.20
2023-02-06T14:03:50.557Z,4.30
2023-02-06T14:07:29.144Z,4.90
2023-02-06T14:11:18.358Z,4.32
2023-02-06T14:14:53.687Z,9.82
2023-02-06T14:18:16.500Z,8.25
2023-02-06T14:21:35.408Z,4.15
2023-02-06T14:24:49.915Z,8.43
2023-02-06T14:28:23.183Z,4.80
2023-02-06T14:32:06.753Z,4.63
2023-02-06T14:35:33.016Z,7.35
2023-02-06T14:38:56.064Z,6.72
2023-02-06T14:41:58.112Z,6.20
2023-02-06T14:45:08.639Z,5.80
2023-02-06T14:48:27.051Z,6.93
2023-02-06T14:51:34.103Z,5.93
2023-02-06T14:54:41.660Z,6.15
2023-02-06T14:57:45.803Z,6.70
2023-02-06T15:00:47.596Z,6.50
2023-02-06T15:03:52.702Z,6.07
2023-02-06T15:07:03.459Z,5.57
2023-02-06T15:10:10.392Z,5.28
2023-02-06T15:13:38.576Z,5.30
2023-02-06T15:16:48.837Z,4.95
2023-02-06T15:19:50.360Z,5.72
2023-02-06T15:22:55.349Z,5.75
2023-02-06T15:26:26.214Z,5.60
2023-02-06T15:29:28.256Z,6.35
2023-02-06T15:32:35.338Z,6.10
2023-02-06T15:35:41.271Z,6.57
2023-02-06T15:38:44.125Z,6.43
2023-02-06T15:41:49.506Z,7.70
2023-02-06T15:44:53.343Z,6.83
2023-02-06T15:47:56.290Z,7.03
2023-02-06T15:51:08.806Z,6.30
2023-02-06T15:54:21.207Z,6.50
2023-02-06T15:57:40.776Z,5.90
2023-02-06T16:00:42.510Z,6.72
2023-02-06T16:03:48.841Z,6.38
2023-02-06T16:07:12.199Z,5.83
2023-02-06T16:10:29.067Z,6.28
2023-02-06T16:13:32.125Z,7.00
2023-02-06T16:16:33.852Z,6.77
2023-02-06T16:19:40.608Z,6.53
2023-02-06T16:22:42.368Z,7.00
2023-02-06T16:25:45.933Z,7.35
2023-02-06T16:29:05.134Z,7.28
2023-02-06T16:32:21.288Z,7.40
2023-02-06T16:35:24.288Z,6.78
2023-02-06T16:38:27.114Z,7.20
2023-02-06T16:41:39.402Z,7.70
2023-02-06T16:44:45.226Z,7.32
2023-02-06T16:47:47.364Z,7.20
2023-02-06T16:50:49.751Z,6.97
2023-02-06T16:53:52.490Z,7.63
2023-02-06T16:57:07.293Z,8.30
2023-02-06T17:00:21.764Z,7.70
2023-02-06T17:03:23.516Z,12.18
2023-02-06T17:06:28.967Z,8.60
2023-02-06T17:09:40.363Z,9.37
2023-02-06T17:12:46.099Z,8.60
2023-02-06T17:15:48.079Z,8.32
2023-02-06T17:18:51.271Z,7.80
2023-02-06T17:21:53.719Z,7.50
2023-02-06T17:24:55.792Z,8.05
2023-02-06T17:27:57.883Z,10.27
2023-02-06T17:30:59.969Z,8.68
2023-02-06T17:34:01.556Z,9.35
2023-02-06T17:37:04.134Z,9.13
2023-02-06T17:40:06.964Z,7.93
2023-02-06T17:43:08.688Z,9.15
2023-02-06T17:46:11.791Z,9.98
2023-02-06T17:49:14.724Z,8.80
2023-02-06T17:52:17.208Z,9.13
2023-02-06T17:55:18.965Z,7.80
2023-02-06T17:58:21.068Z,8.07
2023-02-06T18:01:24.127Z,7.32
2023-02-06T18:04:25.963Z,7.63
2023-02-06T18:07:27.717Z,8.80
2023-02-06T18:10:30.237Z,9.10
2023-02-06T18:13:31.784Z,8.52
2023-02-06T18:16:34.332Z,7.93
2023-02-06T18:19:44.100Z,8.80
2023-02-06T18:22:46.617Z,8.25
2023-02-06T18:25:48.228Z,8.77
2023-02-06T18:28:49.930Z,7.85
2023-02-06T18:31:51.784Z,9.07
2023-02-06T18:34:53.854Z,8.63
2023-02-06T18:37:56.538Z,8.70
2023-02-06T18:41:05.733Z,9.83
2023-02-06T18:44:09.537Z,10.35
2023-02-06T18:47:13.382Z,8.65
2023-02-06T18:50:16.419Z,8.50
2023-02-06T18:53:18.531Z,10.50
2023-02-06T18:56:20.141Z,13.00
2023-02-06T18:59:23.047Z,11.02
2023-02-06T19:02:24.758Z,8.80
2023-02-06T19:05:29.009Z,9.93
2023-02-06T19:08:30.603Z,9.93
2023-02-06T19:11:32.489Z,9.70
2023-02-06T19:14:34.776Z,9.38
2023-02-06T19:17:36.731Z,9.30
2023-02-06T19:20:41.675Z,9.80
2023-02-06T19:23:44.828Z,10.20
2023-02-06T19:26:46.969Z,9.60
2023-02-06T19:29:49.059Z,9.98
2023-02-06T19:32:51.972Z,10.38
2023-02-06T19:35:54.397Z,10.73
2023-02-06T19:39:01.145Z,11.05
2023-02-06T19:42:06.594Z,11.73
2023-02-06T19:45:08.564Z,12.60
2023-02-06T19:48:14.338Z,12.43
2023-02-06T19:51:22.231Z,11.47
2023-02-06T19:54:23.771Z,11.77
2023-02-06T19:57:26.278Z,12.13
2023-02-06T20:00:29.310Z,11.35
2023-02-06T20:03:30.972Z,9.73
2023-02-06T20:06:35.064Z,10.05
2023-02-06T20:09:41.731Z,10.63
2023-02-06T20:12:43.318Z,9.53
2023-02-06T20:15:45.022Z,10.38
2023-02-06T20:18:47.119Z,10.18
2023-02-06T20:21:51.686Z,11.77
2023-02-06T20:24:53.706Z,10.35
2023-02-06T20:27:55.992Z,10.80
2023-02-06T20:30:58.129Z,14.93
2023-02-06T20:34:00.017Z,13.18
2023-02-06T20:37:01.634Z,11.88
2023-02-06T20:40:03.680Z,10.50
2023-02-06T20:43:05.386Z,9.43
2023-02-06T20:46:08.216Z,10.32
2023-02-06T20:49:15.868Z,9.60
2023-02-06T20:52:19.163Z,9.80
2023-02-06T20:55:21.143Z,10.50
2023-02-06T20:58:22.821Z,10.77
2023-02-06T21:01:27.042Z,11.18
2023-02-06T21:04:31.747Z,10.70
2023-02-06T21:07:33.484Z,10.20
2023-02-06T21:10:36.080Z,10.32
2023-02-06T21:13:40.398Z,10.17
2023-02-06T21:16:43.670Z,9.85
2023-02-06T21:19:45.251Z,10.07
2023-02-06T21:22:46.838Z,9.90
2023-02-06T21:25:55.858Z,10.35
2023-02-06T21:28:59.731Z,10.68
2023-02-06T21:32:13.304Z,10.43
2023-02-06T21:35:15.730Z,10.48
2023-02-06T21:38:17.569Z,10.25
2023-02-06T21:41:19.235Z,10.27
2023-02-06T21:44:23.858Z,9.10
2023-02-06T21:47:25.469Z,8.80
2023-02-06T21:50:27.017Z,9.30
2023-02-06T21:53:28.667Z,9.20
2023-02-06T21:56:30.540Z,8.65
2023-02-06T21:59:36.375Z,8.70
2023-02-06T22:02:37.938Z,8.90
2023-02-06T22:05:39.758Z,8.52
2023-02-06T22:08:56.487Z,8.07
2023-02-06T22:11:58.343Z,8.27
2023-02-06T22:14:59.980Z,8.00
2023-02-06T22:18:01.653Z,7.75
2023-02-06T22:21:08.666Z,7.95
2023-02-06T22:24:11.673Z,8.33
2023-02-06T22:27:13.218Z,7.75
2023-02-06T22:30:15.009Z,7.75
2023-02-06T22:33:16.603Z,7.93
2023-02-06T22:36:21.490Z,6.95
2023-02-06T22:39:23.751Z,7.20
2023-02-06T22:42:25.400Z,7.97
2023-02-06T22:45:26.971Z,7.00
2023-02-06T22:48:28.747Z,7.80
2023-02-06T22:51:30.408Z,7.47
2023-02-06T22:54:32.087Z,8.50
2023-02-06T22:57:35.280Z,7.05
2023-02-06T23:00:36.852Z,7.53
2023-02-06T23:03:38.477Z,7.60
2023-02-06T23:06:40.765Z,7.90
2023-02-06T23:09:42.455Z,8.02
2023-02-06T23:12:44.030Z,7.63
2023-02-06T23:15:45.670Z,8.07
2023-02-06T23:18:47.933Z,8.13
2023-02-06T23:21:51.201Z,7.95
2023-02-06T23:24:52.920Z,7.83
2023-02-06T23:27:54.807Z,8.30
2023-02-06T23:30:56.473Z,7.75
2023-02-06T23:33:58.318Z,8.45
2023-02-06T23:36:59.894Z,8.10
2023-02-06T23:40:01.434Z,8.50
2023-02-06T23:43:03.231Z,8.52
2023-02-06T23:46:06.271Z,8.43
2023-02-06T23:49:08.857Z,8.32
2023-02-06T23:52:10.455Z,8.20
2023-02-06T23:55:12.360Z,8.13
2023-02-06T23:58:13.960Z,8.60
